createdAt,value
2019-04-19T00:00:03.323Z,7.3
2019-04-19T00:05:03.418Z,7.2
2019-04-19T00:10:16.792Z,7.1
2019-04-19T00:15:01.647Z,7.1
2019-04-19T00:20:25.377Z,7
2019-04-19T00:25:02.733Z,6.9
2019-04-19T00:30:14.934Z,6.9
2019-04-19T00:35:01.645Z,6.8
2019-04-19T00:40:19.780Z,6.8
2019-04-19T00:45:18.396Z,6.7
2019-04-19T00:50:14.669Z,6.7
2019-04-19T00:55:09.906Z,6.6
2019-04-19T01:00:02.108Z,6.6
2019-04-19T01:05:06.741Z,6.6
2019-04-19T01:10:18.611Z,6.6
2019-04-19T01:15:13.681Z,6.6
2019-04-19T01:20:05.202Z,6.6
2019-04-19T01:25:02.364Z,6.6
2019-04-19T01:30:02.916Z,6.6
2019-04-19T01:35:07.022Z,6.6
2019-04-19T01:40:16.581Z,6.6
2019-04-19T01:45:17.025Z,6.6
2019-04-19T01:50:12.146Z,6.6
2019-04-19T01:55:09.376Z,6.6
2019-04-19T02:00:02.565Z,6.6
2019-04-19T02:05:06.760Z,6.6
2019-04-19T02:10:12.907Z,6.5
2019-04-19T02:15:07.772Z,6.5
2019-04-19T02:20:05.811Z,6.5
2019-04-19T02:25:02.537Z,6.5
2019-04-19T02:30:09.332Z,6.5
2019-04-19T02:35:28.978Z,6.5
2019-04-19T02:40:44.829Z,6.5
2019-04-19T02:45:22.091Z,6.5
2019-04-19T02:55:26.371Z,6.4
2019-04-19T03:00:29.726Z,6.4
2019-04-19T03:05:36.366Z,6.4
2019-04-19T03:10:04.829Z,6.4
2019-04-19T03:15:13.673Z,6.3
2019-04-19T03:20:16.286Z,6.3
2019-04-19T03:25:22.666Z,6.3
2019-04-19T03:30:14.062Z,6.3
2019-04-19T03:35:13.909Z,6.3
2019-04-19T03:40:22.950Z,6.2
2019-04-19T03:45:17.282Z,6.2
2019-04-19T03:50:19.707Z,6.2
2019-04-19T03:55:18.759Z,6.2
2019-04-19T04:00:02.706Z,6.2
2019-04-19T04:05:07.447Z,6.2
2019-04-19T04:10:02.869Z,6.1
2019-04-19T04:15:13.808Z,6.1
2019-04-19T04:20:01.213Z,6.1
2019-04-19T04:25:11.543Z,6.2
2019-04-19T04:30:12.599Z,6.2
2019-04-19T04:35:19.266Z,6.3
2019-04-19T04:40:02.261Z,6.3
2019-04-19T04:45:21.796Z,6.4
2019-04-19T04:50:23.775Z,6.5
2019-04-19T04:55:03.037Z,6.7
2019-04-19T05:00:03.197Z,7
2019-04-19T05:05:19.323Z,7.2
2019-04-19T05:10:18.481Z,7.4
2019-04-19T05:15:22.174Z,7.4
2019-04-19T05:20:16.812Z,7.5
2019-04-19T05:25:25.147Z,7.5
2019-04-19T05:30:02.772Z,7.6
2019-04-19T05:35:15.312Z,7.7
2019-04-19T05:40:18.822Z,7.8
2019-04-19T05:50:25.353Z,8
2019-04-19T05:55:02.426Z,8.1
2019-04-19T06:00:17.866Z,8.3
2019-04-19T06:05:20.099Z,8.5
2019-04-19T06:10:04.861Z,8.7
2019-04-19T06:15:21.579Z,9
2019-04-19T06:20:20.216Z,9.2
2019-04-19T06:25:24.428Z,9.5
2019-04-19T06:30:36.027Z,9.8
2019-04-19T06:35:13.784Z,10.1
2019-04-19T06:40:10.186Z,10.3
2019-04-19T06:45:17.362Z,10.5
2019-04-19T06:50:02.909Z,11
2019-04-19T06:55:08.114Z,11.1
2019-04-19T07:00:12.788Z,11.4
2019-04-19T07:05:18.286Z,11.8
2019-04-19T07:10:31.801Z,12
2019-04-19T07:15:29.980Z,12.2
2019-04-19T07:20:14.676Z,12.4
2019-04-19T07:25:30.282Z,12.6
2019-04-19T07:30:03.819Z,13
2019-04-19T07:35:13.091Z,13
2019-04-19T07:40:23.149Z,13.2
2019-04-19T07:45:05.662Z,13.3
2019-04-19T07:50:10.989Z,13.4
2019-04-19T07:55:06.561Z,13.6
2019-04-19T08:00:40.349Z,13.7
2019-04-19T08:10:25.410Z,14.1
2019-04-19T08:30:04.319Z,14.8
2019-04-19T08:35:03.234Z,14.9
2019-04-19T08:40:19.820Z,15
2019-04-19T08:45:08.190Z,15.2
2019-04-19T08:50:04.975Z,15.5
2019-04-19T08:55:19.115Z,15.7
2019-04-19T09:00:22.806Z,15.8
2019-04-19T09:05:18.240Z,16
2019-04-19T09:10:26.924Z,16
2019-04-19T09:15:19.967Z,16.1
2019-04-19T09:20:18.251Z,16
2019-04-19T09:25:09.865Z,15.7
2019-04-19T09:30:21.385Z,16
2019-04-19T09:35:06.474Z,16.1
2019-04-19T09:40:07.023Z,16.2
2019-04-19T09:45:03.477Z,16.3
2019-04-19T09:50:11.706Z,16.9
2019-04-19T09:55:21.162Z,17.3
2019-04-19T10:00:09.217Z,17.4
2019-04-19T10:05:03.009Z,17.9
2019-04-19T10:10:05.950Z,18.1
2019-04-19T10:15:02.193Z,18
2019-04-19T10:20:02.753Z,18.1
2019-04-19T10:25:03.136Z,18.3
2019-04-19T10:30:02.171Z,18.4
2019-04-19T10:35:01.214Z,18.6
2019-04-19T10:40:02.157Z,18.4
2019-04-19T10:45:02.511Z,18.7
2019-04-19T10:50:12.698Z,18.8
2019-04-19T10:55:02.337Z,19.2
2019-04-19T11:00:03.150Z,19.4
2019-04-19T11:05:02.794Z,19.6
2019-04-19T11:10:02.231Z,19.6
2019-04-19T11:15:02.484Z,19.7
2019-04-19T11:20:16.387Z,19.4
2019-04-19T11:25:02.010Z,19.5
2019-04-19T11:30:01.639Z,19.7
2019-04-19T11:35:01.737Z,20
2019-04-19T11:40:01.549Z,19.7
2019-04-19T11:45:01.674Z,19.5
2019-04-19T11:50:02.145Z,19.4
2019-04-19T11:55:04.106Z,19.4
2019-04-19T12:00:02.798Z,19.4
2019-04-19T12:05:12.645Z,19.4
2019-04-19T12:10:03.043Z,19.4
2019-04-19T12:15:02.375Z,19.2
2019-04-19T12:20:04.265Z,19.3
2019-04-19T12:25:01.526Z,19.3
2019-04-19T12:30:02.029Z,19.4
2019-04-19T12:35:02.780Z,19.6
2019-04-19T12:40:03.291Z,19.7
2019-04-19T12:45:02.049Z,19.8
2019-04-19T12:50:06.001Z,19.8
2019-04-19T12:55:02.000Z,19.8
2019-04-19T13:00:02.418Z,19.9
2019-04-19T13:05:02.545Z,20
2019-04-19T13:10:02.840Z,20
2019-04-19T13:15:01.948Z,20.5
2019-04-19T13:20:09.871Z,20.4
2019-04-19T13:25:01.904Z,20.3
2019-04-19T13:30:10.376Z,20.6
2019-04-19T13:35:03.409Z,20.6
2019-04-19T13:40:02.185Z,20.5
2019-04-19T13:45:10.827Z,20.5
2019-04-19T13:50:12.887Z,20.3
2019-04-19T13:55:03.123Z,20.5
2019-04-19T14:00:03.895Z,20.5
2019-04-19T14:05:01.902Z,20
2019-04-19T14:10:01.739Z,20
2019-04-19T14:15:02.684Z,19.8
2019-04-19T14:20:02.909Z,19.6
2019-04-19T14:25:01.703Z,19.4
2019-04-19T14:30:03.661Z,19.6
2019-04-19T14:35:01.842Z,19.8
2019-04-19T14:40:02.760Z,20.1
2019-04-19T14:45:01.853Z,19.9
2019-04-19T14:50:03.176Z,20
2019-04-19T14:55:01.883Z,20.4
2019-04-19T15:00:03.067Z,20.6
2019-04-19T15:05:01.746Z,20.8
2019-04-19T15:10:01.951Z,20.5
2019-04-19T15:15:01.672Z,20.1
2019-04-19T15:20:01.513Z,19.9
2019-04-19T15:25:02.502Z,19.9
2019-04-19T15:30:01.314Z,19.9
2019-04-19T15:35:03.502Z,19.8
2019-04-19T15:40:02.344Z,19.5
2019-04-19T15:45:01.282Z,19.4
2019-04-19T15:50:02.277Z,19.4
2019-04-19T15:55:03.704Z,19.2
2019-04-19T16:00:02.401Z,18.9
2019-04-19T16:05:02.182Z,18.8
2019-04-19T16:10:07.497Z,18.7
2019-04-19T16:15:02.141Z,18.6
2019-04-19T16:20:01.412Z,18.5
2019-04-19T16:25:01.442Z,18.6
2019-04-19T16:30:03.510Z,18.7
2019-04-19T16:35:03.501Z,18.4
2019-04-19T16:40:02.534Z,18.3
2019-04-19T16:45:02.003Z,18.5
2019-04-19T16:50:02.853Z,18.3
2019-04-19T16:55:01.514Z,18
2019-04-19T17:00:02.360Z,17.7
2019-04-19T17:05:03.089Z,17.4
2019-04-19T17:10:01.858Z,17.2
2019-04-19T17:15:01.630Z,16.8
2019-04-19T17:20:02.766Z,16.3
2019-04-19T17:25:01.643Z,16
2019-04-19T17:30:02.162Z,15.8
2019-04-19T17:35:02.724Z,15.3
2019-04-19T17:40:02.771Z,14.8
2019-04-19T17:45:02.157Z,14.5
2019-04-19T17:50:02.637Z,14.1
2019-04-19T17:55:12.617Z,13.8
2019-04-19T18:00:02.169Z,13.7
2019-04-19T18:05:02.287Z,13.6
2019-04-19T18:10:08.177Z,13.4
2019-04-19T18:15:01.740Z,13.3
2019-04-19T18:20:06.617Z,13.2
2019-04-19T18:25:03.537Z,13.1
2019-04-19T18:30:04.925Z,12.9
2019-04-19T18:35:02.219Z,12.7
2019-04-19T18:40:02.720Z,12.5
2019-04-19T18:45:03.045Z,12.3
2019-04-19T18:50:01.970Z,12.2
2019-04-19T18:55:07.156Z,12.1
2019-04-19T19:00:02.329Z,11.9
2019-04-19T19:05:05.563Z,11.9
2019-04-19T19:10:03.681Z,11.7
2019-04-19T19:15:02.907Z,11.6
2019-04-19T19:20:07.618Z,11.5
2019-04-19T19:25:18.330Z,11.3
2019-04-19T19:30:02.226Z,11.2
2019-04-19T19:35:05.649Z,11
2019-04-19T19:40:09.485Z,10.9
2019-04-19T19:45:17.054Z,10.7
2019-04-19T19:50:29.190Z,10.6
2019-04-19T19:55:16.953Z,10.4
2019-04-19T20:00:11.733Z,10.3
2019-04-19T20:05:03.284Z,10.2
2019-04-19T20:10:06.748Z,10
2019-04-19T20:15:03.258Z,9.9
2019-04-19T20:20:02.614Z,9.8
2019-04-19T20:25:12.699Z,9.7
2019-04-19T20:30:03.711Z,9.6
2019-04-19T20:35:05.449Z,9.5
2019-04-19T20:40:04.635Z,9.4
2019-04-19T20:45:07.711Z,9.3
2019-04-19T20:50:11.721Z,9.3
2019-04-19T20:55:20.193Z,9.3
2019-04-19T21:00:03.037Z,9.2
2019-04-19T21:05:04.440Z,9.1
2019-04-19T21:10:03.880Z,9
2019-04-19T21:15:13.572Z,8.9
2019-04-19T21:20:02.754Z,8.9
2019-04-19T21:25:12.657Z,8.8
2019-04-19T21:30:04.913Z,8.7
2019-04-19T21:35:05.861Z,8.6
2019-04-19T21:40:01.930Z,8.5
2019-04-19T21:45:03.430Z,8.5
2019-04-19T21:50:01.735Z,8.3
2019-04-19T21:55:15.828Z,8.3
2019-04-19T22:00:04.091Z,8.2
2019-04-19T22:05:01.563Z,8.1
2019-04-19T22:10:02.772Z,8
2019-04-19T22:15:07.034Z,8
2019-04-19T22:20:06.998Z,8
2019-04-19T22:25:06.454Z,7.9
2019-04-19T22:30:01.194Z,7.9
2019-04-19T22:35:09.207Z,7.8
2019-04-19T22:40:02.794Z,7.7
2019-04-19T22:45:04.769Z,7.7
2019-04-19T22:50:02.254Z,7.6
2019-04-19T22:55:08.046Z,7.6
2019-04-19T23:00:01.599Z,7.6
2019-04-19T23:05:03.031Z,7.6
2019-04-19T23:10:02.519Z,7.5
2019-04-19T23:15:03.479Z,7.5
2019-04-19T23:20:01.445Z,7.5
2019-04-19T23:25:05.740Z,7.4
2019-04-19T23:30:07.516Z,7.3
2019-04-19T23:35:02.342Z,7.3
2019-04-19T23:40:01.653Z,7.3
2019-04-19T23:45:03.746Z,7.3
2019-04-19T23:50:01.404Z,7.2
2019-04-19T23:55:02.214Z,7.2
